Time;durP1;ratioP1;P1;durP2;ratioP2;P2;SDS_P1;SDS_P2;PMS_P1;PMS_P2;Temp;Humidity;BMP_temperature;BMP_pressure;BME280_temperature;BME280_humidity;BME280_pressure;Samples;Min_cycle;Max_cycle;Signal;HPM_P1;HPM_P2
2023/01/01 00:00:30;;;;;;;1.10;0.38;;;18.10;43.40;;;;;;5032287;28;20044;-56
2023/01/01 00:02:57;;;;;;;4.35;0.30;;;18.10;43.60;;;;;;5045413;28;20053;-53
2023/01/01 00:05:24;;;;;;;1.00;0.10;;;18.00;43.80;;;;;;5044791;28;20044;-56
2023/01/01 00:07:52;;;;;;;3.40;0.20;;;18.00;43.90;;;;;;5060820;28;20037;-60
2023/01/01 00:10:27;;;;;;;1.02;0.10;;;18.10;44.00;;;;;;5060993;28;20094;-57
2023/01/01 00:12:55;;;;;;;0.90;0.73;;;18.10;44.10;;;;;;5045560;28;20114;-50
2023/01/01 00:15:23;;;;;;;0.77;0.10;;;18.10;44.20;;;;;;5060911;28;20511;-48
2023/01/01 00:17:50;;;;;;;3.40;0.10;;;18.20;44.50;;;;;;5045397;28;20124;-51
2023/01/01 00:20:18;;;;;;;5.90;0.32;;;18.40;44.60;;;;;;5044323;28;20045;-51
2023/01/01 00:22:45;;;;;;;2.47;0.90;;;18.60;44.60;;;;;;5044385;28;20804;-46
2023/01/01 00:25:13;;;;;;;5.25;0.20;;;18.70;44.70;;;;;;5045006;28;20052;-49
2023/01/01 00:27:41;;;;;;;4.07;0.85;;;18.90;44.80;;;;;;5044389;28;20051;-48
2023/01/01 00:30:09;;;;;;;0.60;0.20;;;19.00;44.70;;;;;;5044150;28;20548;-48
2023/01/01 00:32:38;;;;;;;10.20;0.60;;;19.20;44.70;;;;;;5045035;28;20922;-49
2023/01/01 00:35:06;;;;;;;1.65;0.20;;;19.30;44.60;;;;;;5037722;28;20060;-46
2023/01/01 00:37:33;;;;;;;4.50;0.50;;;19.50;44.70;;;;;;5034591;28;20678;-47
2023/01/01 00:40:00;;;;;;;7.60;0.45;;;19.60;44.80;;;;;;5045127;28;20475;-48
2023/01/01 00:42:27;;;;;;;3.90;0.95;;;19.60;44.80;;;;;;5044808;28;20533;-57
2023/01/01 00:44:54;;;;;;;5.72;0.95;;;19.80;44.90;;;;;;5045006;28;20120;-46
2023/01/01 00:47:21;;;;;;;2.22;0.57;;;19.90;45.10;;;;;;5044805;28;20044;-49
2023/01/01 00:49:50;;;;;;;7.70;0.50;;;20.00;45.30;;;;;;5044080;28;20045;-47
2023/01/01 00:52:17;;;;;;;5.00;0.38;;;20.10;45.20;;;;;;5044990;28;20591;-47
2023/01/01 00:54:44;;;;;;;5.97;0.30;;;20.10;45.20;;;;;;5044767;28;20037;-46
2023/01/01 00:57:11;;;;;;;1.23;0.50;;;20.20;45.40;;;;;;5044742;28;20535;-47
2023/01/01 00:59:38;;;;;;;3.85;0.65;;;20.30;45.50;;;;;;5034813;28;20045;-45
2023/01/01 01:02:05;;;;;;;0.88;0.20;;;20.30;45.60;;;;;;5044646;28;20144;-48
2023/01/01 01:04:32;;;;;;;5.82;0.75;;;20.40;45.70;;;;;;5045419;28;20043;-52
2023/01/01 01:07:00;;;;;;;2.97;0.93;;;20.50;45.90;;;;;;5042927;28;20558;-50
2023/01/01 01:09:27;;;;;;;4.32;0.30;;;20.60;46.10;;;;;;5027609;28;20044;-48
2023/01/01 01:11:54;;;;;;;16.13;0.40;;;20.60;46.00;;;;;;5040805;28;20128;-46
2023/01/01 01:14:21;;;;;;;2.55;0.43;;;20.70;46.20;;;;;;5048550;28;20037;-49
2023/01/01 01:16:48;;;;;;;3.78;0.40;;;20.70;46.20;;;;;;5048548;28;20041;-52
2023/01/01 01:19:17;;;;;;;4.90;0.20;;;20.80;46.30;;;;;;5047861;28;20041;-50
2023/01/01 01:21:46;;;;;;;3.40;0.30;;;20.90;46.50;;;;;;5041783;28;20498;-51
2023/01/01 01:24:15;;;;;;;8.75;0.30;;;21.00;46.60;;;;;;5043489;28;20048;-51
2023/01/01 01:26:42;;;;;;;2.45;0.22;;;21.10;46.70;;;;;;5063036;28;20127;-50
2023/01/01 01:29:09;;;;;;;3.92;0.40;;;21.10;46.60;;;;;;5048137;28;20084;-51
2023/01/01 01:31:36;;;;;;;2.85;0.52;;;21.20;46.80;;;;;;5048284;28;20766;-51
2023/01/01 01:34:03;;;;;;;3.63;1.10;;;21.20;46.80;;;;;;5046049;28;20037;-48
2023/01/01 01:36:30;;;;;;;12.43;0.40;;;21.30;46.90;;;;;;5047729;28;20102;-49
2023/01/01 01:38:57;;;;;;;5.07;0.77;;;21.30;47.00;;;;;;5046913;28;20222;-52
2023/01/01 01:41:26;;;;;;;6.30;0.20;;;21.30;47.10;;;;;;5048269;28;20041;-50
2023/01/01 01:43:56;;;;;;;3.63;0.40;;;21.40;47.10;;;;;;5047419;28;20049;-53
2023/01/01 01:46:30;;;;;;;11.63;0.82;;;21.50;47.00;;;;;;5048167;28;20056;-49
2023/01/01 01:49:01;;;;;;;3.65;0.20;;;21.50;46.90;;;;;;5046989;28;20083;-46
2023/01/01 01:51:33;;;;;;;4.25;0.63;;;21.50;46.80;;;;;;5047750;28;20840;-48
2023/01/01 01:54:04;;;;;;;3.85;0.40;;;21.50;46.80;;;;;;5047655;28;20044;-46
2023/01/01 01:56:41;;;;;;;2.92;0.95;;;21.60;46.90;;;;;;5047610;28;20072;-48
2023/01/01 01:59:09;;;;;;;2.58;0.98;;;21.60;47.10;;;;;;5047391;28;20079;-49
2023/01/01 02:01:36;;;;;;;4.15;0.45;;;21.60;46.90;;;;;;5047259;28;20037;-46
2023/01/01 02:04:05;;;;;;;3.05;0.17;;;21.70;47.10;;;;;;5047276;28;20072;-54
2023/01/01 02:06:34;;;;;;;3.92;0.22;;;21.70;47.00;;;;;;5047416;28;20501;-55
2023/01/01 02:09:05;;;;;;;7.00;0.57;;;21.70;47.10;;;;;;5047449;28;20038;-51
2023/01/01 02:11:34;;;;;;;9.70;0.40;;;21.70;47.10;;;;;;5047718;28;20052;-51
2023/01/01 02:14:02;;;;;;;5.18;0.60;;;21.70;47.10;;;;;;5047162;28;20072;-50
2023/01/01 02:16:36;;;;;;;2.85;0.47;;;21.80;47.20;;;;;;5046958;28;20064;-46
2023/01/01 02:19:12;;;;;;;3.63;0.95;;;21.80;47.10;;;;;;5047525;28;20525;-48
2023/01/01 02:21:50;;;;;;;1.33;0.20;;;21.80;47.20;;;;;;5047415;28;20045;-47
2023/01/01 02:24:34;;;;;;;0.80;0.40;;;21.80;47.10;;;;;;5047322;28;20041;-49
2023/01/01 02:27:05;;;;;;;2.05;0.20;;;21.80;47.30;;;;;;5046617;28;20051;-46
2023/01/01 02:29:40;;;;;;;6.45;0.43;;;21.80;47.40;;;;;;5047504;28;20459;-55
2023/01/01 02:32:12;;;;;;;6.35;0.45;;;21.90;47.60;;;;;;5046545;28;20049;-58
2023/01/01 02:34:43;;;;;;;5.78;0.50;;;21.90;47.60;;;;;;5061796;28;20638;-53
2023/01/01 02:37:13;;;;;;;2.80;0.20;;;21.90;47.50;;;;;;5046659;28;20041;-52
2023/01/01 02:39:47;;;;;;;3.70;0.17;;;21.90;47.40;;;;;;5046873;28;20065;-55
2023/01/01 02:42:15;;;;;;;6.40;0.20;;;22.00;47.40;;;;;;5062049;28;20091;-56
2023/01/01 02:44:47;;;;;;;6.88;0.75;;;22.00;47.40;;;;;;5046373;28;20037;-51
2023/01/01 02:47:16;;;;;;;3.80;1.00;;;22.00;47.30;;;;;;5046671;28;20045;-53
2023/01/01 02:49:54;;;;;;;1.88;0.25;;;22.00;47.20;;;;;;5061312;28;20425;-47
2023/01/01 02:52:43;;;;;;;1.15;0.28;;;22.00;47.10;;;;;;5045812;28;20457;-44
2023/01/01 02:55:23;;;;;;;7.07;0.57;;;22.00;46.80;;;;;;5054236;28;20055;-46
2023/01/01 02:57:57;;;;;;;0.20;0.10;;;22.10;46.60;;;;;;5056433;28;20075;-44
2023/01/01 03:00:27;;;;;;;3.80;0.30;;;22.00;46.30;;;;;;5060730;28;20558;-43
2023/01/01 03:03:20;;;;;;;1.42;0.90;;;22.10;46.20;;;;;;5053143;28;20058;-46
2023/01/01 03:08:48;;;;;;;2.50;0.30;;;22.10;45.90;;;;;;5054761;28;20049;-45
2023/01/01 03:11:18;;;;;;;2.63;0.40;;;22.10;45.70;;;;;;5051823;28;20037;-45
2023/01/01 03:13:51;;;;;;;1.83;0.22;;;22.10;45.70;;;;;;5054385;28;20036;-43
2023/01/01 03:16:24;;;;;;;0.70;0.30;;;22.10;45.60;;;;;;5055547;28;20071;-45
2023/01/01 03:19:10;;;;;;;5.10;1.70;;;22.10;45.60;;;;;;5065786;28;20048;-43
2023/01/01 03:21:47;;;;;;;4.40;1.00;;;22.10;45.50;;;;;;5052033;28;20100;-45
2023/01/01 03:24:26;;;;;;;3.03;0.60;;;22.10;45.60;;;;;;5040209;28;20518;-47
2023/01/01 03:26:56;;;;;;;2.85;0.63;;;22.10;45.50;;;;;;5036817;28;20163;-44
2023/01/01 03:29:27;;;;;;;1.67;0.13;;;22.10;45.40;;;;;;5057617;28;20065;-45
2023/01/01 03:31:58;;;;;;;3.05;0.30;;;22.10;45.40;;;;;;5039128;28;20045;-43
2023/01/01 03:34:33;;;;;;;1.58;0.45;;;22.10;45.40;;;;;;5037489;28;20041;-43
2023/01/01 03:37:05;;;;;;;2.25;0.20;;;22.10;45.30;;;;;;5036193;28;20061;-44
2023/01/01 03:39:36;;;;;;;1.05;0.28;;;22.10;45.40;;;;;;5055310;28;20111;-43
2023/01/01 03:42:12;;;;;;;1.55;0.10;;;22.00;45.30;;;;;;5046785;28;20488;-43
2023/01/01 03:44:45;;;;;;;2.00;0.30;;;22.00;45.30;;;;;;5044979;28;20390;-46
2023/01/01 03:47:14;;;;;;;2.28;0.20;;;22.00;45.30;;;;;;5045819;28;20076;-43
2023/01/01 03:49:42;;;;;;;0.75;0.30;;;22.00;45.30;;;;;;5045656;28;20037;-43
2023/01/01 03:52:20;;;;;;;4.03;0.60;;;22.00;45.30;;;;;;5045460;28;20416;-44
2023/01/01 03:54:53;;;;;;;3.47;0.40;;;22.00;45.30;;;;;;5044261;28;20101;-43
2023/01/01 03:57:26;;;;;;;3.50;0.20;;;22.00;45.40;;;;;;5045082;28;20144;-44
2023/01/01 04:00:02;;;;;;;1.33;0.20;;;22.00;45.50;;;;;;5045742;28;20045;-43
2023/01/01 04:02:45;;;;;;;1.58;0.22;;;21.90;45.40;;;;;;5045518;28;20086;-45
2023/01/01 04:05:13;;;;;;;0.60;0.17;;;21.90;45.50;;;;;;5044995;28;20041;-43
2023/01/01 04:07:40;;;;;;;2.25;0.43;;;21.90;45.60;;;;;;5045504;28;20048;-45
2023/01/01 04:10:16;;;;;;;1.30;0.30;;;21.90;45.60;;;;;;5045094;28;20053;-43
2023/01/01 04:12:45;;;;;;;;;;;21.90;45.60;;;;;;5045138;28;20045;-42
2023/01/01 04:15:12;;;;;;;2.80;0.20;;;21.90;45.70;;;;;;5044916;28;20019;-43
2023/01/01 04:17:40;;;;;;;1.95;0.30;;;21.80;45.80;;;;;;5045601;28;20128;-45
2023/01/01 04:20:09;;;;;;;1.00;0.45;;;21.80;45.80;;;;;;5045114;28;20048;-43
2023/01/01 04:22:36;;;;;;;2.58;1.02;;;21.80;45.80;;;;;;5045207;28;20063;-45
2023/01/01 04:25:04;;;;;;;1.85;0.63;;;21.80;45.90;;;;;;5045133;28;20106;-45
2023/01/01 04:27:31;;;;;;;3.83;0.15;;;21.80;45.80;;;;;;5044680;28;20040;-43
2023/01/01 04:29:58;;;;;;;4.57;0.77;;;21.80;45.90;;;;;;5044970;28;20134;-47
2023/01/01 04:32:25;;;;;;;0.75;0.17;;;21.80;45.80;;;;;;5045233;28;20043;-42
2023/01/01 04:34:53;;;;;;;1.17;0.43;;;21.80;45.90;;;;;;5044946;28;20128;-42
2023/01/01 04:37:20;;;;;;;1.52;0.45;;;21.80;46.00;;;;;;5043546;28;20086;-48
2023/01/01 04:39:47;;;;;;;1.67;0.43;;;21.70;45.90;;;;;;5060375;28;20052;-45
2023/01/01 04:42:14;;;;;;;0.28;0.20;;;21.70;45.90;;;;;;5044950;28;20535;-46
2023/01/01 04:44:41;;;;;;;4.22;0.45;;;21.70;46.00;;;;;;5045100;28;20080;-43
2023/01/01 04:47:08;;;;;;;2.67;0.40;;;21.70;46.00;;;;;;5045055;28;20041;-44
2023/01/01 04:49:35;;;;;;;0.70;0.47;;;21.70;46.10;;;;;;5045113;28;20135;-43
2023/01/01 04:52:05;;;;;;;5.68;0.65;;;21.70;46.10;;;;;;5045172;28;20047;-45
2023/01/01 04:54:33;;;;;;;1.92;0.80;;;21.70;46.10;;;;;;5045284;28;20049;-45
2023/01/01 04:57:00;;;;;;;2.97;0.40;;;21.70;46.20;;;;;;5044583;28;20043;-49
2023/01/01 04:59:28;;;;;;;1.70;0.32;;;21.70;46.50;;;;;;5045208;28;20080;-46
2023/01/01 05:01:55;;;;;;;1.90;0.65;;;21.70;46.40;;;;;;5044954;28;20041;-47
2023/01/01 05:04:22;;;;;;;2.30;0.20;;;21.70;46.40;;;;;;5043119;28;20499;-45
2023/01/01 05:06:49;;;;;;;1.20;0.30;;;21.70;46.50;;;;;;5044868;28;20051;-43
2023/01/01 05:09:18;;;;;;;1.95;0.20;;;21.70;46.60;;;;;;5044880;28;20044;-46
2023/01/01 05:11:45;;;;;;;2.97;1.00;;;21.70;46.70;;;;;;5044423;28;20060;-46
2023/01/01 05:14:12;;;;;;;3.72;0.50;;;21.70;46.80;;;;;;5024907;28;20120;-44
2023/01/01 05:16:40;;;;;;;3.85;1.05;;;21.70;47.00;;;;;;5033031;28;20511;-43
2023/01/01 05:19:09;;;;;;;0.82;0.20;;;21.70;47.00;;;;;;5044898;28;20045;-45
2023/01/01 05:21:39;;;;;;;1.10;0.20;;;21.70;47.10;;;;;;5044781;28;20091;-46
2023/01/01 05:24:07;;;;;;;0.45;0.20;;;21.70;47.20;;;;;;5044775;28;20079;-44
2023/01/01 05:26:37;;;;;;;0.88;0.88;;;21.70;47.30;;;;;;5044311;28;20060;-44
2023/01/01 05:29:05;;;;;;;3.35;0.43;;;21.70;47.40;;;;;;5044679;28;20049;-44
2023/01/01 05:31:33;;;;;;;4.53;0.32;;;21.60;47.30;;;;;;5044936;28;20502;-45
2023/01/01 05:34:01;;;;;;;2.05;0.95;;;21.70;47.40;;;;;;5044800;28;20490;-44
2023/01/01 05:36:30;;;;;;;1.73;0.20;;;21.70;47.50;;;;;;5044356;28;20045;-46
2023/01/01 05:38:58;;;;;;;4.50;0.47;;;21.70;47.60;;;;;;5044549;28;20037;-45
2023/01/01 05:41:25;;;;;;;3.97;0.47;;;21.60;47.60;;;;;;5044713;28;20033;-46
2023/01/01 05:43:54;;;;;;;1.60;0.20;;;21.70;47.60;;;;;;5044499;28;20137;-43
2023/01/01 05:46:22;;;;;;;3.00;0.70;;;21.70;47.80;;;;;;5044124;28;20037;-44
2023/01/01 05:48:50;;;;;;;0.80;0.13;;;21.60;47.90;;;;;;5043990;28;20441;-45
2023/01/01 05:51:20;;;;;;;4.30;0.30;;;21.60;48.00;;;;;;5046848;28;20044;-46
2023/01/01 05:53:47;;;;;;;1.02;0.30;;;21.60;48.00;;;;;;5047762;28;20053;-46
2023/01/01 05:56:15;;;;;;;0.50;0.20;;;21.60;48.10;;;;;;5048410;28;20047;-44
2023/01/01 05:58:43;;;;;;;5.00;0.20;;;21.60;48.10;;;;;;5047883;28;20072;-44
2023/01/01 06:01:13;;;;;;;4.53;1.20;;;21.60;48.10;;;;;;5064081;28;20051;-46
2023/01/01 06:03:41;;;;;;;3.63;0.20;;;21.60;48.20;;;;;;5048063;28;20572;-43
2023/01/01 06:06:10;;;;;;;1.05;0.17;;;21.60;48.10;;;;;;5047323;28;20433;-43
2023/01/01 06:08:38;;;;;;;1.65;0.20;;;21.60;48.20;;;;;;5047327;28;20070;-44
2023/01/01 06:11:07;;;;;;;3.80;0.22;;;21.60;48.20;;;;;;5047509;28;20415;-47
2023/01/01 06:13:34;;;;;;;4.50;0.32;;;21.60;48.20;;;;;;5077705;28;20052;-46
2023/01/01 06:16:03;;;;;;;2.45;0.20;;;21.60;48.20;;;;;;5083086;28;20048;-46
2023/01/01 06:18:33;;;;;;;2.63;0.43;;;21.60;48.20;;;;;;5067700;28;20045;-44
2023/01/01 06:21:04;;;;;;;0.93;0.30;;;21.60;48.20;;;;;;5066135;28;20633;-43
2023/01/01 06:23:31;;;;;;;6.30;1.75;;;21.60;48.20;;;;;;5067169;28;20057;-43
2023/01/01 06:26:04;;;;;;;1.55;0.30;;;21.60;48.80;;;;;;5067431;28;20129;-44
2023/01/01 06:28:33;;;;;;;1.95;0.20;;;21.60;48.30;;;;;;5048518;28;20107;-47
2023/01/01 06:31:01;;;;;;;5.10;0.25;;;21.50;48.20;;;;;;5045673;28;20848;-44
2023/01/01 06:33:28;;;;;;;1.38;0.40;;;21.50;48.20;;;;;;5047171;28;20072;-43
2023/01/01 06:35:57;;;;;;;1.90;0.28;;;21.50;48.20;;;;;;5046963;28;20568;-46
2023/01/01 06:38:24;;;;;;;2.00;0.20;;;21.60;48.40;;;;;;5045553;28;20076;-48
2023/01/01 06:40:58;;;;;;;6.00;0.43;;;21.50;48.30;;;;;;5047194;28;20051;-46
2023/01/01 06:43:25;;;;;;;2.60;0.43;;;21.60;48.40;;;;;;5047060;28;20497;-50
2023/01/01 06:46:03;;;;;;;8.07;0.20;;;21.50;48.40;;;;;;5046685;28;20051;-46
2023/01/01 06:48:32;;;;;;;1.48;0.35;;;21.60;48.40;;;;;;5047035;28;20069;-45
2023/01/01 06:51:06;;;;;;;0.50;0.30;;;21.50;48.40;;;;;;5046840;28;20045;-43
2023/01/01 06:53:33;;;;;;;1.75;0.35;;;21.60;48.50;;;;;;5046344;28;20045;-44
2023/01/01 06:56:00;;;;;;;4.05;0.50;;;21.50;48.40;;;;;;5046908;28;20041;-45
2023/01/01 06:58:27;;;;;;;1.73;0.40;;;21.50;48.50;;;;;;5046565;28;20138;-44
2023/01/01 07:00:54;;;;;;;2.97;0.40;;;21.50;48.50;;;;;;5046587;28;20037;-43
2023/01/01 07:03:21;;;;;;;1.25;0.30;;;21.50;48.50;;;;;;5046643;28;20141;-46
2023/01/01 07:05:49;;;;;;;0.80;0.50;;;21.50;48.50;;;;;;5046027;28;20048;-44
2023/01/01 07:08:17;;;;;;;0.98;0.30;;;21.50;48.50;;;;;;5046561;28;20041;-46
2023/01/01 07:10:44;;;;;;;1.63;0.30;;;21.50;48.60;;;;;;5045183;28;20045;-44
2023/01/01 07:13:11;;;;;;;2.78;0.98;;;21.50;48.60;;;;;;5046456;28;20417;-43
2023/01/01 07:15:38;;;;;;;1.67;0.20;;;21.50;48.60;;;;;;5046639;28;20045;-44
2023/01/01 07:18:05;;;;;;;0.75;0.22;;;21.50;48.60;;;;;;5046289;28;20041;-46
2023/01/01 07:20:32;;;;;;;0.68;0.10;;;21.50;49.20;;;;;;5045602;28;20040;-45
2023/01/01 07:23:01;;;;;;;0.57;0.20;;;21.50;48.70;;;;;;5046477;28;20049;-46
2023/01/01 07:25:29;;;;;;;3.00;0.20;;;21.50;48.70;;;;;;5045998;28;20056;-42
2023/01/01 07:27:56;;;;;;;1.48;0.15;;;21.50;48.70;;;;;;5046015;28;20068;-43
2023/01/01 07:30:23;;;;;;;3.33;0.70;;;21.50;48.70;;;;;;5046113;28;20063;-44
2023/01/01 07:32:55;;;;;;;2.00;0.20;;;21.50;48.70;;;;;;5046104;28;20037;-45
2023/01/01 07:35:22;;;;;;;0.82;0.13;;;21.50;48.80;;;;;;5045395;28;20462;-47
2023/01/01 07:37:49;;;;;;;3.33;0.30;;;21.50;48.80;;;;;;5046192;28;20070;-46
2023/01/01 07:40:16;;;;;;;1.75;0.20;;;21.50;48.80;;;;;;5044755;28;20137;-44
2023/01/01 07:42:45;;;;;;;5.30;0.45;;;21.50;48.80;;;;;;5045742;28;20037;-47
2023/01/01 07:45:13;;;;;;;2.92;0.45;;;21.40;48.80;;;;;;5045131;28;20044;-44
2023/01/01 07:47:40;;;;;;;4.10;0.45;;;21.50;48.80;;;;;;5045474;28;20049;-49
2023/01/01 07:50:11;;;;;;;2.25;0.20;;;21.40;48.80;;;;;;5045542;28;20060;-45
2023/01/01 07:52:38;;;;;;;0.95;0.68;;;21.40;48.90;;;;;;5046165;28;20128;-46
2023/01/01 07:55:05;;;;;;;0.50;0.22;;;21.50;48.90;;;;;;5045481;28;20044;-43
2023/01/01 07:57:32;;;;;;;2.92;0.93;;;21.40;48.90;;;;;;5045853;28;20045;-46
2023/01/01 08:00:01;;;;;;;0.93;0.10;;;21.40;49.00;;;;;;5045407;28;20080;-45
2023/01/01 08:02:28;;;;;;;2.78;0.20;;;21.40;49.00;;;;;;5046023;28;20041;-42
2023/01/01 08:04:57;;;;;;;2.42;0.30;;;21.40;49.00;;;;;;5045318;28;20052;-42
2023/01/01 08:07:24;;;;;;;0.68;0.30;;;21.40;49.10;;;;;;5045884;28;20520;-43
2023/01/01 08:09:51;;;;;;;2.00;0.20;;;21.40;49.10;;;;;;5045704;28;20133;-42
2023/01/01 08:12:18;;;;;;;2.38;0.20;;;21.40;49.10;;;;;;5045104;28;20075;-50
2023/01/01 08:14:45;;;;;;;3.05;0.20;;;21.40;49.10;;;;;;5045269;28;20041;-43
2023/01/01 08:17:14;;;;;;;0.90;0.30;;;21.40;49.10;;;;;;5045665;28;20089;-45
2023/01/01 08:19:41;;;;;;;0.77;0.32;;;21.40;49.10;;;;;;5045159;28;20041;-45
2023/01/01 08:22:08;;;;;;;1.38;0.47;;;21.40;49.10;;;;;;5045570;28;20057;-44
2023/01/01 08:24:35;;;;;;;1.15;0.20;;;21.40;49.10;;;;;;5045373;28;20083;-44
2023/01/01 08:27:02;;;;;;;1.40;0.20;;;21.40;49.20;;;;;;5045297;28;20405;-44
2023/01/01 08:29:29;;;;;;;1.00;0.32;;;21.40;49.20;;;;;;5045243;28;20076;-43
2023/01/01 08:31:56;;;;;;;4.63;0.20;;;21.40;49.20;;;;;;5044914;28;20088;-44
2023/01/01 08:34:24;;;;;;;5.00;0.38;;;21.40;50.00;;;;;;5057011;28;20152;-44
2023/01/01 08:36:52;;;;;;;1.75;0.70;;;21.40;49.50;;;;;;5025100;28;20485;-44
2023/01/01 08:39:19;;;;;;;2.28;0.20;;;21.40;49.50;;;;;;5025221;28;20056;-45
2023/01/01 08:41:46;;;;;;;2.70;0.28;;;21.40;49.60;;;;;;5025615;28;20468;-45
2023/01/01 08:44:13;;;;;;;2.47;0.32;;;21.40;49.60;;;;;;5025257;28;20326;-44
2023/01/01 08:46:40;;;;;;;3.30;0.20;;;21.40;49.60;;;;;;5025299;28;20525;-49
2023/01/01 08:49:07;;;;;;;1.13;0.38;;;21.40;49.60;;;;;;5025080;28;20453;-46
2023/01/01 08:51:36;;;;;;;1.33;0.20;;;21.40;50.20;;;;;;5025211;28;20053;-44
2023/01/01 08:54:03;;;;;;;1.90;0.20;;;21.40;49.70;;;;;;5025536;28;20561;-48
2023/01/01 08:56:30;;;;;;;3.70;1.55;;;21.40;49.70;;;;;;5025343;28;20521;-44
2023/01/01 08:58:57;;;;;;;4.25;0.50;;;21.40;49.60;;;;;;5025315;28;20045;-46
2023/01/01 09:01:26;;;;;;;6.88;0.50;;;21.40;49.60;;;;;;5036579;28;20037;-50
2023/01/01 09:03:53;;;;;;;2.22;0.45;;;21.40;49.70;;;;;;5044424;28;20068;-47
2023/01/01 09:06:20;;;;;;;14.38;0.40;;;21.40;50.10;;;;;;5044966;28;20501;-52
2023/01/01 09:08:49;;;;;;;6.72;0.30;;;21.40;50.20;;;;;;5044836;28;20416;-50
2023/01/01 09:11:22;;;;;;;9.60;0.20;;;21.50;50.30;;;;;;5045147;28;20080;-49
2023/01/01 09:13:50;;;;;;;5.90;0.40;;;21.40;50.20;;;;;;5077073;28;20049;-53
2023/01/01 09:16:17;;;;;;;5.97;0.35;;;21.50;50.30;;;;;;5064706;28;20658;-50
2023/01/01 09:18:44;;;;;;;5.72;0.40;;;21.50;50.30;;;;;;5064704;28;20048;-54
2023/01/01 09:21:12;;;;;;;3.60;0.20;;;21.50;50.30;;;;;;5046755;28;20037;-55
2023/01/01 09:23:39;;;;;;;7.07;1.23;;;21.50;50.50;;;;;;5044635;28;20126;-57
2023/01/01 09:26:09;;;;;;;6.95;1.45;;;21.50;50.50;;;;;;5047576;28;20080;-54
2023/01/01 09:28:37;;;;;;;5.05;0.30;;;21.50;50.40;;;;;;5048550;28;20087;-56
2023/01/01 09:31:05;;;;;;;3.10;0.30;;;21.50;50.30;;;;;;5048257;28;20045;-57
2023/01/01 09:33:33;;;;;;;9.60;0.75;;;21.50;50.20;;;;;;5048911;28;20064;-54
2023/01/01 09:36:15;;;;;;;6.63;1.65;;;21.60;50.20;;;;;;5048198;28;20036;-56
2023/01/01 09:38:42;;;;;;;1.35;0.30;;;21.60;50.00;;;;;;5048344;28;20132;-54
2023/01/01 09:41:19;;;;;;;2.47;0.35;;;21.50;50.00;;;;;;5048191;28;20493;-56
2023/01/01 09:43:55;;;;;;;1.52;0.73;;;21.60;50.00;;;;;;5048442;28;20126;-55
2023/01/01 09:46:24;;;;;;;1.85;0.30;;;21.50;49.90;;;;;;5048015;28;20100;-55
2023/01/01 09:48:55;;;;;;;2.53;0.35;;;21.60;49.90;;;;;;5048685;28;20481;-56
2023/01/01 09:51:24;;;;;;;3.83;0.30;;;21.60;49.80;;;;;;5048029;28;20056;-56
2023/01/01 09:53:57;;;;;;;1.50;0.20;;;21.50;49.70;;;;;;5048455;28;20044;-56
2023/01/01 09:56:29;;;;;;;5.53;0.70;;;21.60;49.80;;;;;;5047681;28;20057;-55
2023/01/01 09:58:57;;;;;;;4.22;0.32;;;21.50;49.70;;;;;;5047902;28;20065;-56
2023/01/01 10:01:38;;;;;;;3.67;0.10;;;21.60;49.70;;;;;;5047763;28;20052;-55
2023/01/01 10:04:25;;;;;;;6.53;0.30;;;21.50;49.60;;;;;;5047373;28;20041;-52
2023/01/01 10:07:02;;;;;;;3.08;0.20;;;21.60;49.50;;;;;;5047925;28;20076;-56
2023/01/01 10:09:38;;;;;;;1.98;0.57;;;21.60;49.60;;;;;;5047574;28;20115;-55
2023/01/01 10:12:15;;;;;;;3.13;0.68;;;21.50;49.50;;;;;;5048060;28;20099;-55
2023/01/01 10:14:46;;;;;;;5.60;0.20;;;21.50;49.50;;;;;;5048106;28;20045;-56
2023/01/01 10:17:17;;;;;;;2.35;0.32;;;21.50;49.40;;;;;;5063039;28;20037;-53
2023/01/01 10:19:49;;;;;;;1.38;0.50;;;21.50;49.40;;;;;;5047639;28;20041;-56
2023/01/01 10:22:22;;;;;;;1.20;0.60;;;21.50;49.40;;;;;;5047389;28;20072;-56
2023/01/01 10:24:54;;;;;;;2.38;0.30;;;21.50;49.30;;;;;;5047782;28;20052;-54
2023/01/01 10:27:30;;;;;;;4.05;0.47;;;21.50;49.30;;;;;;5047674;28;20118;-55
2023/01/01 10:29:59;;;;;;;2.85;0.95;;;21.50;49.30;;;;;;5045782;28;20099;-52
2023/01/01 10:32:29;;;;;;;5.30;0.85;;;21.50;49.90;;;;;;5047688;28;20087;-56
2023/01/01 10:34:57;;;;;;;1.20;0.20;;;21.50;49.30;;;;;;5047554;28;20144;-55
2023/01/01 10:37:34;;;;;;;5.40;0.43;;;21.50;49.30;;;;;;5045992;28;20072;-54
2023/01/01 10:40:06;;;;;;;0.90;0.35;;;21.50;49.30;;;;;;5047680;28;20052;-56
2023/01/01 10:42:34;;;;;;;2.80;0.85;;;21.50;49.30;;;;;;5047552;28;20513;-56
2023/01/01 10:45:04;;;;;;;0.68;0.40;;;21.50;49.30;;;;;;5047041;28;20094;-56
2023/01/01 10:47:31;;;;;;;1.77;0.13;;;21.50;49.30;;;;;;5047592;28;20299;-54
2023/01/01 10:50:00;;;;;;;1.45;0.82;;;21.50;49.20;;;;;;5047355;28;20404;-54
2023/01/01 10:52:30;;;;;;;4.68;0.30;;;21.50;49.20;;;;;;5047597;28;20049;-56
2023/01/01 10:54:58;;;;;;;2.83;0.40;;;21.50;49.20;;;;;;5047319;28;20068;-55
2023/01/01 10:57:36;;;;;;;1.90;0.22;;;21.50;49.20;;;;;;5047387;28;20040;-57
2023/01/01 11:00:20;;;;;;;1.80;0.40;;;21.50;49.20;;;;;;5047198;28;20461;-57
2023/01/01 11:02:47;;;;;;;3.15;0.22;;;21.50;49.20;;;;;;5047523;28;20218;-53
2023/01/01 11:05:16;;;;;;;1.85;0.32;;;21.50;49.30;;;;;;5046625;28;20056;-57
2023/01/01 11:07:44;;;;;;;2.28;1.05;;;21.50;49.20;;;;;;5047319;28;20433;-51
2023/01/01 11:10:20;;;;;;;3.40;0.20;;;21.50;49.20;;;;;;5047387;28;20045;-54
2023/01/01 11:12:51;;;;;;;2.00;0.52;;;21.50;49.20;;;;;;5054873;28;20041;-57
2023/01/01 11:15:25;;;;;;;3.72;0.20;;;21.50;49.20;;;;;;5066971;28;20789;-52
2023/01/01 11:18:02;;;;;;;0.90;0.90;;;21.50;49.20;;;;;;5067077;28;20463;-54
2023/01/01 11:20:29;;;;;;;3.03;0.22;;;21.50;49.10;;;;;;5066527;28;20064;-57
2023/01/01 11:22:57;;;;;;;1.27;0.20;;;21.50;49.10;;;;;;5066983;28;20140;-55
2023/01/01 11:25:27;;;;;;;3.58;0.20;;;21.50;49.10;;;;;;5066559;28;20795;-56
2023/01/01 11:28:20;;;;;;;4.57;0.50;;;21.50;49.60;;;;;;5053070;28;20033;-55
2023/01/01 11:31:01;;;;;;;1.73;0.10;;;21.50;49.00;;;;;;5046733;28;20513;-57
2023/01/01 11:33:31;;;;;;;2.03;0.30;;;21.50;49.00;;;;;;5046791;28;20044;-56
2023/01/01 11:35:59;;;;;;;1.63;0.22;;;21.50;49.00;;;;;;5045350;28;20041;-56
2023/01/01 11:38:26;;;;;;;2.45;0.35;;;21.50;49.00;;;;;;5046578;28;20045;-57
2023/01/01 11:40:55;;;;;;;0.60;0.55;;;21.50;48.90;;;;;;5046549;28;20039;-53
2023/01/01 11:43:25;;;;;;;2.90;0.35;;;21.50;48.90;;;;;;5046075;28;20037;-57
2023/01/01 11:45:54;;;;;;;0.20;0.10;;;21.50;48.90;;;;;;5046035;28;20052;-56
2023/01/01 11:48:26;;;;;;;2.08;0.55;;;21.50;48.90;;;;;;5045626;28;20059;-55
2023/01/01 11:50:55;;;;;;;1.15;0.10;;;21.50;48.90;;;;;;5046002;28;20696;-55
2023/01/01 11:53:30;;;;;;;1.75;0.10;;;21.50;48.90;;;;;;5046497;28;20791;-54
2023/01/01 11:56:04;;;;;;;1.70;0.15;;;21.50;48.90;;;;;;5046097;28;20043;-58
2023/01/01 11:58:40;;;;;;;;;;;21.50;48.90;;;;;;5046728;28;20044;-57
2023/01/01 12:01:13;;;;;;;3.60;0.30;;;21.40;48.90;;;;;;5046229;28;19929;-56
2023/01/01 12:03:44;;;;;;;0.75;0.20;;;21.40;49.00;;;;;;5046427;28;20118;-56
2023/01/01 12:06:18;;;;;;;4.53;0.45;;;21.40;49.00;;;;;;5045376;28;20068;-55
2023/01/01 12:08:51;;;;;;;0.45;0.10;;;21.40;49.00;;;;;;5046007;28;20037;-54
2023/01/01 12:11:25;;;;;;;2.03;0.30;;;21.40;49.00;;;;;;5045146;28;20361;-57
2023/01/01 12:13:59;;;;;;;1.88;0.30;;;21.40;49.00;;;;;;5046017;28;20127;-58
2023/01/01 12:16:38;;;;;;;1.17;0.32;;;21.40;49.00;;;;;;5046182;28;20052;-57
2023/01/01 12:19:11;;;;;;;1.15;0.32;;;21.40;49.00;;;;;;5045977;28;20131;-59
2023/01/01 12:21:42;;;;;;;1.30;0.73;;;21.40;49.00;;;;;;5046356;28;20044;-57
2023/01/01 12:24:11;;;;;;;2.90;0.85;;;21.40;49.00;;;;;;5044580;28;20486;-58
2023/01/01 12:26:57;;;;;;;2.60;0.10;;;21.40;49.10;;;;;;5060503;28;20045;-55
2023/01/01 12:29:40;;;;;;;1.95;0.45;;;21.40;49.00;;;;;;5045714;28;20044;-56
2023/01/01 12:32:17;;;;;;;1.48;0.20;;;21.40;49.10;;;;;;5045770;28;20045;-57
2023/01/01 12:34:53;;;;;;;1.05;0.20;;;21.40;49.20;;;;;;5045526;28;20497;-59
2023/01/01 12:37:26;;;;;;;;;;;21.40;49.20;;;;;;5045877;28;20564;-57
2023/01/01 12:40:28;;;;;;;2.05;0.10;;;21.30;49.10;;;;;;5043904;28;20466;-56
2023/01/01 12:43:03;;;;;;;1.30;0.20;;;21.30;49.30;;;;;;5045939;28;20041;-56
2023/01/01 12:46:06;;;;;;;2.03;0.10;;;21.30;49.40;;;;;;5045885;28;20052;-57
2023/01/01 12:49:05;;;;;;;1.90;0.70;;;21.30;49.30;;;;;;5045855;28;20333;-56
2023/01/01 12:51:42;;;;;;;0.70;0.15;;;21.30;49.40;;;;;;5045273;28;20128;-54
2023/01/01 12:54:32;;;;;;;1.58;0.20;;;21.30;49.40;;;;;;5045241;28;20083;-55
2023/01/01 12:57:06;;;;;;;1.13;0.20;;;21.30;49.90;;;;;;5045948;28;20041;-54
2023/01/01 12:59:36;;;;;;;0.50;0.30;;;21.30;49.40;;;;;;5047687;28;20041;-55
2023/01/01 13:02:16;;;;;;;1.80;0.40;;;21.30;49.40;;;;;;5049795;28;20060;-57
2023/01/01 13:04:44;;;;;;;1.65;0.20;;;21.30;49.40;;;;;;5049517;28;20124;-56
2023/01/01 13:07:13;;;;;;;1.15;0.30;;;21.30;49.40;;;;;;5049347;28;20052;-55